Aviation Digital Data Service (ADDS)

Output produced by TAFs form (2109 UTC 19 July 2018)
found at http://www.aviationweather.gov/adds/tafs/
 
KCSV 192053Z AUTO VRB03KT 10SM CLR 29/16 A3002 RMK AO2 SLP143 T02890161 56007
KCSV 191720Z 1918/2018 23004KT P6SM SKC 
     FM201500 18007KT P6SM SCT050 BKN100